This is the latest recevied weather packets stored in our database for station/object E20ZNR-1. If no packets are shown the sender has not sent any weather packets the latest 10 day(s).
| Time | Temp. | Humidity | Pressure | Rain* | Wind** | Luminosity | Snow |
|---|---|---|---|---|---|---|---|
| 1777688263 | 39.44° C | 49% | 1007 hPa | - | - | 0 W/m² | - |
| 1777687339 | 39.44° C | 49% | 1007 hPa | - | - | 0 W/m² | - |
| 1777686413 | 45.56° C | 36% | 1006 hPa | - | - | 0 W/m² | - |
| 1777685488 | 48.33° C | 35% | 1006 hPa | - | - | 0 W/m² | - |
| 1777684563 | 43.33° C | 42% | 1006 hPa | - | - | 0 W/m² | - |
| 1777683639 | 44.44° C | 41% | 1006 hPa | - | - | 0 W/m² | - |
| 1777682714 | 42.78° C | 45% | 1006 hPa | - | - | 0 W/m² | - |
| 1777681789 | 38.89° C | 56% | 1006 hPa | - | - | 0 W/m² | - |
| 1777680863 | 35.56° C | 64% | 1006 hPa | - | - | 0 W/m² | - |
| 1777679938 | 35.56° C | 70% | 1006 hPa | - | - | 0 W/m² | - |
| 1777679013 | 31.11° C | 87% | 1006 hPa | - | - | 0 W/m² | - |
| 1777678088 | 28.33° C | 99% | 1006 hPa | - | - | 0 W/m² | - |
| 1777677163 | 26.67° C | 99% | 1006 hPa | - | - | 0 W/m² | - |
| 1777676237 | 26.11° C | 99% | 1006 hPa | - | - | 0 W/m² | - |
| 1777675311 | 26.11° C | 99% | 1005 hPa | - | - | 0 W/m² | - |
| 1777674388 | 26.67° C | 99% | 1005 hPa | - | - | 0 W/m² | - |
| 1777673461 | 26.11° C | 99% | 1005 hPa | - | - | 0 W/m² | - |
| 1777672536 | 26.67° C | 99% | 1005 hPa | - | - | 0 W/m² | - |
| 1777671611 | 26.67° C | 99% | 1005 hPa | - | - | 0 W/m² | - |
| 1777670685 | 26.67° C | 99% | 1005 hPa | - | - | 0 W/m² | - |
| 1777669760 | 26.67° C | 99% | 1005 hPa | - | - | 0 W/m² | - |
| 1777668835 | 26.67° C | 99% | 1005 hPa | - | - | 0 W/m² | - |
| 1777667909 | 26.67° C | 99% | 1005 hPa | - | - | 0 W/m² | - |
| 1777666983 | 27.22° C | 99% | 1005 hPa | - | - | 0 W/m² | - |
| 1777666059 | 27.22° C | 99% | 1005 hPa | - | - | 0 W/m² | - |
* Rain since midnight (hover to see other rain measurements)
** Current wind speed in m/s (hover to see current wind gust speed)